Terminal Aerodrome Forecast
Issued by NWS

Home | Current Version | Previous Version | Text Only | Print | Product List | Glossary On
Versions: 1 2 3 4 5 6 7 8 9 10 11 12 13 14 15 16 17 18 19 20 21 22 23 24 25 26 27 28 29 30 31 32
000
FTUS46 KSEW 281700
TAFSEA
TAF
KSEA 281734Z 2818/2924 36003KT P6SM BKN004 BKN020
     FM282100 34005KT P6SM BKN040
     FM290000 03004KT P6SM SCT050 BKN100
     FM290400 04004KT P6SM OVC050=

USA.gov is the U.S. government's official web portal to all federal, state and local government web resources and services.